UBA weather

Mário de Almeida Franco Airport
Uberaba, Minas Gerais, Brazil

Public forecast

Using degrees Celsius for public forecast. Weather courtesy of forecast.io.

Current aviation weather report (METAR) for Mário de Almeida Franco Airport

Report is more than 6 hours old.

Retrieved 2020/07/14 01:00 UTC (7 hours ago):

SBUR 140100Z 05005KT CAVOK 19/08 Q1021

Aviation forecast (TAF) for Mário de Almeida Franco Airport

Forecast is more than 6 hours old.

Retrieved 2020-07-14 00:42 UTC (7 hours ago):

TAF SBUR 132200Z 1400/1412 13002KT CAVOK TX20/1400Z TN18/1409Z BECMG 1410/1412 26010KT RMK PHH